createdAt,value
2019-04-29T00:01:36.384Z,30.65
2019-04-29T00:04:06.015Z,29.73
2019-04-29T00:06:35.567Z,29.50
2019-04-29T00:09:07.783Z,29.72
2019-04-29T00:11:37.349Z,30.10
2019-04-29T00:14:08.103Z,30.15
2019-04-29T00:16:52.959Z,29.63
2019-04-29T00:19:31.071Z,31.77
2019-04-29T00:22:01.172Z,29.82
2019-04-29T00:24:30.881Z,30.62
2019-04-29T00:27:00.355Z,31.00
2019-04-29T00:29:29.966Z,30.35
2019-04-29T00:31:59.513Z,29.90
2019-04-29T00:34:29.015Z,30.80
2019-04-29T00:37:14.909Z,30.30
2019-04-29T00:40:01.878Z,29.50
2019-04-29T00:42:42.652Z,30.30
2019-04-29T00:45:12.559Z,31.02
2019-04-29T00:47:42.067Z,31.60
2019-04-29T00:50:11.711Z,30.10
2019-04-29T00:52:41.205Z,29.23
2019-04-29T00:55:14.091Z,30.33
2019-04-29T00:57:43.515Z,29.98
2019-04-29T01:00:15.928Z,29.42
2019-04-29T01:02:45.583Z,29.77
2019-04-29T01:05:15.007Z,29.37
2019-04-29T01:07:44.566Z,27.87
2019-04-29T01:10:14.769Z,28.90
2019-04-29T01:12:44.224Z,29.20
2019-04-29T01:15:13.942Z,29.72
2019-04-29T01:17:43.469Z,29.15
2019-04-29T01:20:13.162Z,29.57
2019-04-29T01:22:43.412Z,29.98
2019-04-29T01:25:13.905Z,29.72
2019-04-29T01:27:50.080Z,29.52
2019-04-29T01:30:54.158Z,28.42
2019-04-29T01:33:23.794Z,28.67
2019-04-29T01:36:03.986Z,28.95
2019-04-29T01:38:33.391Z,29.63
2019-04-29T01:41:09.896Z,28.02
2019-04-29T01:43:57.486Z,29.07
2019-04-29T01:46:26.956Z,27.25
2019-04-29T01:48:56.663Z,28.92
2019-04-29T01:51:26.082Z,29.80
2019-04-29T01:53:55.550Z,27.77
2019-04-29T01:56:25.229Z,28.90
2019-04-29T01:58:54.651Z,28.75
2019-04-29T02:01:24.111Z,28.65
2019-04-29T02:03:53.532Z,28.10
2019-04-29T02:06:23.147Z,29.15
2019-04-29T02:08:54.427Z,28.92
2019-04-29T02:11:23.961Z,29.70
2019-04-29T02:13:53.820Z,30.10
2019-04-29T02:16:23.247Z,30.77
2019-04-29T02:18:52.731Z,30.45
2019-04-29T02:21:22.301Z,28.32
2019-04-29T02:23:58.166Z,30.17
2019-04-29T02:26:27.634Z,29.52
2019-04-29T02:28:57.071Z,29.65
2019-04-29T02:31:38.442Z,29.23
2019-04-29T02:34:08.393Z,30.68
2019-04-29T02:36:38.552Z,30.15
2019-04-29T02:39:28.020Z,30.65
2019-04-29T02:42:25.652Z,30.05
2019-04-29T02:44:55.945Z,29.45
2019-04-29T02:47:25.652Z,29.25
2019-04-29T02:49:55.127Z,29.32
2019-04-29T02:52:24.556Z,30.12
2019-04-29T02:54:57.475Z,31.50
2019-04-29T02:57:57.788Z,31.67
2019-04-29T03:00:52.334Z,30.97
2019-04-29T03:03:28.088Z,32.15
2019-04-29T03:06:00.626Z,29.25
2019-04-29T03:08:30.044Z,30.20
2019-04-29T03:10:59.465Z,30.90
2019-04-29T03:13:29.112Z,30.55
2019-04-29T03:15:58.544Z,31.52
2019-04-29T03:18:30.565Z,30.72
2019-04-29T03:21:09.453Z,32.55
2019-04-29T03:23:38.974Z,32.63
2019-04-29T03:26:08.746Z,32.37
2019-04-29T03:28:38.265Z,32.95
2019-04-29T03:31:07.734Z,32.45
2019-04-29T03:33:37.319Z,33.50
2019-04-29T03:36:06.811Z,31.82
2019-04-29T03:38:36.344Z,31.90
2019-04-29T03:41:05.845Z,32.07
2019-04-29T03:43:35.506Z,32.98
2019-04-29T03:46:04.978Z,32.88
2019-04-29T03:48:35.319Z,32.38
2019-04-29T03:51:04.943Z,34.45
2019-04-29T03:53:34.478Z,31.93
2019-04-29T03:56:04.742Z,32.30
2019-04-29T03:58:34.144Z,32.80
2019-04-29T04:01:21.205Z,32.63
2019-04-29T04:04:01.233Z,33.38
2019-04-29T04:06:45.017Z,33.38
2019-04-29T04:09:17.344Z,33.92
2019-04-29T04:11:46.775Z,32.70
2019-04-29T04:14:16.176Z,31.80
2019-04-29T04:17:04.495Z,33.95
2019-04-29T04:19:34.819Z,33.08
2019-04-29T04:22:04.331Z,33.02
2019-04-29T04:24:34.683Z,32.03
2019-04-29T04:27:04.359Z,31.60
2019-04-29T04:29:33.814Z,32.40
2019-04-29T04:32:03.307Z,32.85
2019-04-29T04:34:33.636Z,31.80
2019-04-29T04:37:03.137Z,33.70
2019-04-29T04:39:34.135Z,31.55
2019-04-29T04:42:03.615Z,30.68
2019-04-29T04:44:49.363Z,32.27
2019-04-29T04:47:20.992Z,32.40
2019-04-29T04:49:50.551Z,31.07
2019-04-29T04:52:20.096Z,33.88
2019-04-29T04:54:51.429Z,32.17
2019-04-29T04:57:21.079Z,31.83
2019-04-29T04:59:50.566Z,32.30
2019-04-29T05:02:20.626Z,39.33
2019-04-29T05:04:50.129Z,35.80
2019-04-29T05:07:19.650Z,32.70
2019-04-29T05:09:49.365Z,32.48
2019-04-29T05:12:18.978Z,32.13
2019-04-29T05:14:48.553Z,32.33
2019-04-29T05:17:18.066Z,33.08
2019-04-29T05:19:47.529Z,32.42
2019-04-29T05:22:16.948Z,31.33
2019-04-29T05:24:46.603Z,31.75
2019-04-29T05:27:16.027Z,31.40
2019-04-29T05:29:45.583Z,30.45
2019-04-29T05:32:15.338Z,31.27
2019-04-29T05:34:48.271Z,30.05
2019-04-29T05:37:29.720Z,29.92
2019-04-29T05:39:59.174Z,28.87
2019-04-29T05:42:28.827Z,26.23
2019-04-29T05:45:04.887Z,27.00
2019-04-29T05:47:37.367Z,26.37
2019-04-29T05:50:24.873Z,24.80
2019-04-29T05:53:11.380Z,28.55
2019-04-29T05:55:42.079Z,29.87
2019-04-29T05:58:11.864Z,33.65
2019-04-29T06:00:49.977Z,29.67
2019-04-29T06:03:19.416Z,29.43
2019-04-29T06:05:49.249Z,29.50
2019-04-29T06:08:18.733Z,29.20
2019-04-29T06:10:48.162Z,29.35
2019-04-29T06:13:17.932Z,27.65
2019-04-29T06:15:47.472Z,28.85
2019-04-29T06:18:17.643Z,29.80
2019-04-29T06:20:48.197Z,29.30
2019-04-29T06:23:19.008Z,28.98
2019-04-29T06:25:48.897Z,27.32
2019-04-29T06:28:21.661Z,28.35
2019-04-29T06:30:50.226Z,29.12
2019-04-29T06:33:24.376Z,29.82
2019-04-29T06:35:51.747Z,28.45
2019-04-29T06:38:21.323Z,28.65
2019-04-29T06:40:51.080Z,27.95
2019-04-29T06:43:24.381Z,26.62
2019-04-29T06:45:51.628Z,28.27
2019-04-29T06:48:21.166Z,27.60
2019-04-29T06:50:50.828Z,27.58
2019-04-29T06:53:21.275Z,28.83
2019-04-29T06:55:51.370Z,28.40
2019-04-29T06:58:20.787Z,27.13
2019-04-29T07:00:50.965Z,28.15
2019-04-29T07:03:25.061Z,29.92
2019-04-29T07:05:52.020Z,28.35
2019-04-29T07:08:21.456Z,28.02
2019-04-29T07:10:50.888Z,26.12
2019-04-29T07:13:22.768Z,25.17
2019-04-29T07:15:51.926Z,23.97
2019-04-29T07:18:21.424Z,22.75
2019-04-29T07:20:50.913Z,23.02
2019-04-29T07:23:20.619Z,23.00
2019-04-29T07:25:50.063Z,22.65
2019-04-29T07:28:19.701Z,22.42
2019-04-29T07:31:01.045Z,21.87
2019-04-29T07:33:22.656Z,22.27
2019-04-29T07:35:51.476Z,21.17
2019-04-29T07:38:20.889Z,21.77
2019-04-29T07:40:50.332Z,21.17
2019-04-29T07:43:19.785Z,21.75
2019-04-29T07:46:05.424Z,21.35
2019-04-29T07:48:36.968Z,21.10
2019-04-29T07:51:06.354Z,21.07
2019-04-29T07:53:44.832Z,22.58
2019-04-29T07:56:08.248Z,21.70
2019-04-29T07:58:37.806Z,21.52
2019-04-29T08:01:08.694Z,19.80
2019-04-29T08:03:38.284Z,21.15
2019-04-29T08:06:07.783Z,20.00
2019-04-29T08:08:37.687Z,20.65
2019-04-29T08:11:07.094Z,19.67
2019-04-29T08:13:38.380Z,19.45
2019-04-29T08:16:07.863Z,19.80
2019-04-29T08:18:37.431Z,18.55
2019-04-29T08:21:10.172Z,17.92
2019-04-29T08:23:41.190Z,18.98
2019-04-29T08:26:09.219Z,18.30
2019-04-29T08:28:38.693Z,18.00
2019-04-29T08:31:08.405Z,18.30
2019-04-29T08:33:37.906Z,20.43
2019-04-29T08:36:07.444Z,17.90
2019-04-29T08:38:37.112Z,17.57
2019-04-29T08:41:06.534Z,18.00
2019-04-29T08:43:52.435Z,17.60
2019-04-29T08:46:26.812Z,22.13
2019-04-29T08:48:56.383Z,18.27
2019-04-29T08:51:25.947Z,17.82
2019-04-29T08:53:55.428Z,17.10
2019-04-29T08:56:25.047Z,18.02
2019-04-29T08:58:54.563Z,16.60
2019-04-29T09:01:24.691Z,17.25
2019-04-29T09:03:58.015Z,17.35
2019-04-29T09:06:27.682Z,16.80
2019-04-29T09:08:59.535Z,17.85
2019-04-29T09:11:27.421Z,20.80
2019-04-29T09:13:57.280Z,16.42
2019-04-29T09:16:26.714Z,16.80
2019-04-29T09:18:56.186Z,16.13
2019-04-29T09:21:25.865Z,15.63
2019-04-29T09:23:55.324Z,16.13
2019-04-29T09:26:36.337Z,16.97
2019-04-29T09:29:23.911Z,16.15
2019-04-29T09:31:53.434Z,16.95
2019-04-29T09:34:24.802Z,16.40
2019-04-29T09:36:54.032Z,17.52
2019-04-29T09:39:23.728Z,17.37
2019-04-29T09:42:13.125Z,17.27
2019-04-29T09:45:00.663Z,17.00
2019-04-29T09:47:31.196Z,17.90
2019-04-29T09:50:00.652Z,17.45
2019-04-29T09:52:30.118Z,17.90
2019-04-29T09:54:59.716Z,18.20
2019-04-29T09:57:30.593Z,17.77
2019-04-29T10:00:11.897Z,17.50
2019-04-29T10:03:02.807Z,17.40
2019-04-29T10:05:38.182Z,16.95
2019-04-29T10:08:08.007Z,16.37
2019-04-29T10:10:37.524Z,16.73
2019-04-29T10:13:08.625Z,15.95
2019-04-29T10:16:00.275Z,16.17
2019-04-29T10:18:38.292Z,17.20
2019-04-29T10:21:10.269Z,16.07
2019-04-29T10:23:39.885Z,16.80
2019-04-29T10:26:09.670Z,16.52
2019-04-29T10:28:49.344Z,16.87
2019-04-29T10:31:18.934Z,17.70
2019-04-29T10:33:50.311Z,16.90
2019-04-29T10:36:20.568Z,15.35
2019-04-29T10:38:52.204Z,16.25
2019-04-29T10:41:35.988Z,16.70
2019-04-29T10:44:40.036Z,15.98
2019-04-29T10:47:43.473Z,15.77
2019-04-29T10:50:17.375Z,18.55
2019-04-29T10:52:47.159Z,17.85
2019-04-29T10:55:17.554Z,17.47
2019-04-29T10:57:49.745Z,17.45
2019-04-29T11:00:41.325Z,17.50
2019-04-29T11:03:10.863Z,17.45
2019-04-29T11:06:00.066Z,17.92
2019-04-29T11:08:38.255Z,16.62
2019-04-29T11:23:45.726Z,15.77
2019-04-29T11:26:29.663Z,15.63
2019-04-29T11:29:00.160Z,15.18
2019-04-29T11:31:29.624Z,14.80
2019-04-29T11:34:24.384Z,14.65
2019-04-29T11:36:54.054Z,14.37
2019-04-29T11:39:23.617Z,15.03
2019-04-29T11:41:54.725Z,15.10
2019-04-29T11:44:26.461Z,16.32
2019-04-29T11:46:58.822Z,14.95
2019-04-29T11:49:36.561Z,15.50
2019-04-29T11:52:09.879Z,15.00
2019-04-29T11:54:37.526Z,15.93
2019-04-29T11:57:09.608Z,15.90
2019-04-29T11:59:57.267Z,16.00
2019-04-29T12:02:45.778Z,15.78
2019-04-29T12:05:31.703Z,14.73
2019-04-29T12:08:03.093Z,14.63
2019-04-29T12:10:32.862Z,14.50
2019-04-29T12:13:05.089Z,13.35
2019-04-29T12:15:59.581Z,13.00
2019-04-29T12:18:33.995Z,13.85
2019-04-29T12:21:15.650Z,14.10
2019-04-29T12:23:47.803Z,13.98
2019-04-29T12:26:17.061Z,12.63
2019-04-29T12:28:46.501Z,12.13
2019-04-29T12:31:23.268Z,13.90
2019-04-29T12:33:58.436Z,13.05
2019-04-29T12:36:27.892Z,13.57
2019-04-29T12:39:43.149Z,14.73
2019-04-29T12:42:20.885Z,14.53
2019-04-29T12:44:59.953Z,15.05
2019-04-29T12:47:31.898Z,14.63
2019-04-29T12:50:01.402Z,14.85
2019-04-29T12:52:31.058Z,14.20
2019-04-29T12:55:07.055Z,19.75
2019-04-29T12:57:31.624Z,13.28
2019-04-29T13:00:01.127Z,19.90
2019-04-29T13:02:49.540Z,13.67
2019-04-29T13:05:37.248Z,13.03
2019-04-29T13:08:15.384Z,13.53
2019-04-29T13:10:48.049Z,13.20
2019-04-29T13:13:20.118Z,13.15
2019-04-29T13:16:06.781Z,13.93
2019-04-29T13:18:41.301Z,17.20
2019-04-29T13:21:10.892Z,12.35
2019-04-29T13:23:53.536Z,12.65
2019-04-29T13:26:11.531Z,12.40
2019-04-29T13:28:58.995Z,12.10
2019-04-29T13:31:12.494Z,12.10
2019-04-29T13:33:45.962Z,12.82
2019-04-29T13:36:13.900Z,12.93
2019-04-29T13:38:43.605Z,12.33
2019-04-29T13:41:14.367Z,12.20
2019-04-29T13:43:44.575Z,11.70
2019-04-29T13:46:41.800Z,12.00
2019-04-29T13:49:31.480Z,11.12
2019-04-29T13:52:01.361Z,11.45
2019-04-29T13:54:31.298Z,12.03
2019-04-29T13:57:07.547Z,10.60
2019-04-29T14:00:09.254Z,10.72
2019-04-29T14:02:58.410Z,10.60
2019-04-29T14:05:18.509Z,11.57
2019-04-29T14:07:48.673Z,11.08
2019-04-29T14:10:19.323Z,11.53
2019-04-29T14:12:57.008Z,11.78
2019-04-29T14:15:21.277Z,11.83
2019-04-29T14:17:50.740Z,11.30
2019-04-29T14:20:20.233Z,10.23
2019-04-29T14:22:50.223Z,10.48
2019-04-29T14:25:19.683Z,11.38
2019-04-29T14:27:49.322Z,10.78
2019-04-29T14:30:20.995Z,10.47
2019-04-29T14:32:54.306Z,10.00
2019-04-29T14:35:36.265Z,10.83
2019-04-29T14:38:06.107Z,10.88
2019-04-29T14:40:39.058Z,10.93
2019-04-29T14:43:31.400Z,10.87
2019-04-29T14:46:15.690Z,10.68
2019-04-29T14:48:52.940Z,11.35
2019-04-29T14:51:22.749Z,11.10
2019-04-29T14:53:56.709Z,11.30
2019-04-29T14:56:24.028Z,10.88
2019-04-29T14:59:05.978Z,10.90
2019-04-29T15:01:32.236Z,10.75
2019-04-29T15:04:17.195Z,11.18
2019-04-29T15:06:34.576Z,10.58
2019-04-29T15:09:04.435Z,11.30
2019-04-29T15:11:41.145Z,10.98
2019-04-29T15:14:42.240Z,11.20
2019-04-29T15:17:28.131Z,11.57
2019-04-29T15:20:16.532Z,11.50
2019-04-29T15:22:45.982Z,10.87
2019-04-29T15:25:20.542Z,11.15
2019-04-29T15:27:47.749Z,11.05
2019-04-29T15:30:17.175Z,10.20
2019-04-29T15:32:46.753Z,10.23
2019-04-29T15:35:19.799Z,10.65
2019-04-29T15:37:47.369Z,10.65
2019-04-29T15:42:13.338Z,10.32
2019-04-29T15:44:43.673Z,10.78
2019-04-29T15:47:13.121Z,10.63
2019-04-29T15:49:44.943Z,11.20
2019-04-29T15:52:16.017Z,10.82
2019-04-29T15:54:50.437Z,9.98
2019-04-29T15:57:17.193Z,9.08
2019-04-29T15:59:49.192Z,8.93
2019-04-29T16:02:18.065Z,9.45
2019-04-29T16:04:54.761Z,9.00
2019-04-29T16:07:38.178Z,9.18
2019-04-29T16:10:26.845Z,9.45
2019-04-29T16:13:00.044Z,10.30
2019-04-29T16:15:30.839Z,11.10
2019-04-29T16:18:05.113Z,10.93
2019-04-29T16:20:31.469Z,11.70
2019-04-29T16:23:02.126Z,10.78
2019-04-29T16:25:40.327Z,11.33
2019-04-29T16:28:05.654Z,10.78
2019-04-29T16:30:35.189Z,10.75
2019-04-29T16:33:12.942Z,10.32
2019-04-29T16:35:36.054Z,10.45
2019-04-29T16:38:11.188Z,10.87
2019-04-29T16:40:41.389Z,10.33
2019-04-29T16:43:17.155Z,10.93
2019-04-29T16:46:03.482Z,11.03
2019-04-29T16:48:34.469Z,10.63
2019-04-29T16:51:06.552Z,11.20
2019-04-29T16:53:35.083Z,11.10
2019-04-29T16:56:04.654Z,11.53
2019-04-29T16:58:34.470Z,11.10
2019-04-29T17:01:04.005Z,11.40
2019-04-29T17:03:33.787Z,11.50
2019-04-29T17:06:03.243Z,11.08
2019-04-29T17:09:03.501Z,12.00
2019-04-29T17:11:30.792Z,12.20
2019-04-29T17:14:03.538Z,12.25
2019-04-29T17:16:31.531Z,12.23
2019-04-29T17:19:01.184Z,12.63
2019-04-29T17:21:30.763Z,12.93
2019-04-29T17:24:00.195Z,13.63
2019-04-29T17:26:37.958Z,13.40
2019-04-29T17:29:38.953Z,13.38
2019-04-29T17:32:15.607Z,13.83
2019-04-29T17:34:58.895Z,13.90
2019-04-29T17:37:17.008Z,13.80
2019-04-29T17:39:46.738Z,14.20
2019-04-29T17:42:16.194Z,14.55
2019-04-29T17:44:46.517Z,14.37
2019-04-29T17:47:33.863Z,14.53
2019-04-29T17:50:29.626Z,14.98
2019-04-29T17:52:49.937Z,15.48
2019-04-29T17:55:40.717Z,14.93
2019-04-29T17:58:13.138Z,15.63
2019-04-29T18:00:57.250Z,14.55
2019-04-29T18:03:46.264Z,14.43
2019-04-29T18:06:28.317Z,14.68
2019-04-29T18:09:19.662Z,15.23
2019-04-29T18:11:53.489Z,14.87
2019-04-29T18:14:21.425Z,15.08
2019-04-29T18:16:51.030Z,15.85
2019-04-29T18:19:30.815Z,15.05
2019-04-29T18:22:19.618Z,14.30
2019-04-29T18:25:00.882Z,25.90
2019-04-29T18:27:34.367Z,14.80
2019-04-29T18:30:06.935Z,15.28
2019-04-29T18:32:36.429Z,16.40
2019-04-29T18:35:06.395Z,15.85
2019-04-29T18:37:38.474Z,16.48
2019-04-29T18:40:08.198Z,16.00
2019-04-29T18:42:38.473Z,16.53
2019-04-29T18:45:10.641Z,16.30
2019-04-29T18:47:40.084Z,15.60
2019-04-29T18:50:09.912Z,16.48
2019-04-29T18:52:39.372Z,35.85
2019-04-29T18:55:11.761Z,18.75
2019-04-29T18:57:41.365Z,16.00
2019-04-29T19:00:19.056Z,16.65
2019-04-29T19:02:52.308Z,16.48
2019-04-29T19:05:21.163Z,16.70
2019-04-29T19:07:55.124Z,18.10
2019-04-29T19:10:32.264Z,16.90
2019-04-29T19:13:00.129Z,16.50
2019-04-29T19:15:27.000Z,17.48
2019-04-29T19:18:01.369Z,17.50
2019-04-29T19:20:27.747Z,17.80
2019-04-29T19:23:05.731Z,18.62
2019-04-29T19:25:28.498Z,20.15
2019-04-29T19:27:58.139Z,21.33
2019-04-29T19:30:29.292Z,20.97
2019-04-29T19:33:00.356Z,21.05
2019-04-29T19:35:34.603Z,33.92
2019-04-29T19:38:02.112Z,46.35
2019-04-29T19:40:39.040Z,23.83
2019-04-29T19:43:03.525Z,22.30
2019-04-29T19:45:32.949Z,22.50
2019-04-29T19:48:03.302Z,22.22
2019-04-29T19:50:32.999Z,22.77
2019-04-29T19:53:05.026Z,22.62
2019-04-29T19:55:41.695Z,23.65
2019-04-29T19:58:07.139Z,23.77
2019-04-29T20:00:39.057Z,23.15
2019-04-29T20:03:20.375Z,24.67
2019-04-29T20:05:46.465Z,24.27
2019-04-29T20:08:37.569Z,23.20
2019-04-29T20:10:51.158Z,28.23
2019-04-29T20:13:18.172Z,48.83
2019-04-29T20:16:09.674Z,31.37
2019-04-29T20:18:58.378Z,26.25
2019-04-29T20:21:24.716Z,26.35
2019-04-29T20:23:53.071Z,25.55
2019-04-29T20:26:28.406Z,25.90
2019-04-29T20:28:55.599Z,26.10
2019-04-29T20:31:26.046Z,25.25
2019-04-29T20:33:58.482Z,26.42
2019-04-29T20:36:38.367Z,25.90
2019-04-29T20:38:58.601Z,26.77
2019-04-29T20:41:40.162Z,26.55
2019-04-29T20:44:00.830Z,26.33
2019-04-29T20:46:43.182Z,26.35
2019-04-29T20:49:01.458Z,27.90
2019-04-29T20:51:47.902Z,34.92
2019-04-29T20:54:13.008Z,31.00
2019-04-29T20:56:40.144Z,28.42
2019-04-29T20:59:12.778Z,27.40
2019-04-29T21:01:44.735Z,28.30
2019-04-29T21:04:30.642Z,27.50
2019-04-29T21:06:59.072Z,27.87
2019-04-29T21:09:17.444Z,28.10
2019-04-29T21:12:15.682Z,28.23
2019-04-29T21:14:50.296Z,27.70
2019-04-29T21:17:28.737Z,27.60
2019-04-29T21:19:51.059Z,26.33
2019-04-29T21:22:23.637Z,27.90
2019-04-29T21:24:53.934Z,29.03
2019-04-29T21:27:24.148Z,27.50
2019-04-29T21:29:55.409Z,27.58
2019-04-29T21:32:26.203Z,28.23
2019-04-29T21:35:17.033Z,28.23
2019-04-29T21:38:06.720Z,27.90
2019-04-29T21:40:46.082Z,29.07
2019-04-29T21:43:19.757Z,29.92
2019-04-29T21:45:49.365Z,28.83
2019-04-29T21:48:18.987Z,29.80
2019-04-29T21:50:48.428Z,30.45
2019-04-29T21:53:17.908Z,31.33
2019-04-29T21:55:47.781Z,31.82
2019-04-29T21:58:17.177Z,31.53
2019-04-29T22:00:46.637Z,35.17
2019-04-29T22:03:19.765Z,35.60
2019-04-29T22:05:49.216Z,33.00
2019-04-29T22:08:20.740Z,33.45
2019-04-29T22:10:50.504Z,33.78
2019-04-29T22:13:20.024Z,30.57
2019-04-29T22:15:49.457Z,30.62
2019-04-29T22:18:19.792Z,30.70
2019-04-29T22:20:49.274Z,29.90
2019-04-29T22:23:18.963Z,30.45
2019-04-29T22:25:49.301Z,29.60
2019-04-29T22:28:19.923Z,30.90
2019-04-29T22:30:54.193Z,30.68
2019-04-29T22:33:20.747Z,30.43
2019-04-29T22:35:52.042Z,30.32
2019-04-29T22:38:21.479Z,31.37
2019-04-29T22:40:52.206Z,31.50
2019-04-29T22:43:49.510Z,31.30
2019-04-29T22:46:19.316Z,31.33
2019-04-29T22:48:49.314Z,31.73
2019-04-29T22:51:19.116Z,31.55
2019-04-29T22:53:48.822Z,31.60
2019-04-29T22:56:18.710Z,31.20
2019-04-29T22:58:48.164Z,33.53
2019-04-29T23:01:17.823Z,35.50
2019-04-29T23:03:47.485Z,33.70
2019-04-29T23:06:16.948Z,35.08
2019-04-29T23:08:46.504Z,32.63
2019-04-29T23:11:16.171Z,34.13
2019-04-29T23:13:47.614Z,32.42
2019-04-29T23:16:16.885Z,33.50
2019-04-29T23:18:46.710Z,34.48
2019-04-29T23:21:37.379Z,36.45
2019-04-29T23:24:19.049Z,33.60
2019-04-29T23:26:48.570Z,33.30
2019-04-29T23:29:18.008Z,34.15
2019-04-29T23:31:47.634Z,34.25
2019-04-29T23:34:17.098Z,30.00
2019-04-29T23:36:48.965Z,29.98
2019-04-29T23:39:17.630Z,30.93
2019-04-29T23:41:47.055Z,29.98
2019-04-29T23:44:16.782Z,28.32
2019-04-29T23:46:47.513Z,28.87
2019-04-29T23:49:17.165Z,28.32
2019-04-29T23:51:46.618Z,27.07
2019-04-29T23:54:16.042Z,26.80
2019-04-29T23:57:06.109Z,27.98
2019-04-29T23:59:37.338Z,26.75
